createdAt,value
2018-04-07T00:04:05.334Z,101081.05
2018-04-07T00:06:33.424Z,101075.25
2018-04-07T00:09:01.555Z,101077.80
2018-04-07T00:11:29.683Z,101074.41
2018-04-07T00:13:57.823Z,101072.89
2018-04-07T00:16:25.906Z,101065.13
2018-04-07T00:18:55.656Z,101061.59
2018-04-07T00:21:24.526Z,101061.33
2018-04-07T00:23:52.663Z,101062.23
2018-04-07T00:26:20.772Z,101058.44
2018-04-07T00:28:48.861Z,101054.06
2018-04-07T00:31:18.125Z,101065.72
2018-04-07T00:33:46.251Z,101062.25
2018-04-07T00:36:14.583Z,101068.46
2018-04-07T00:38:42.692Z,101058.00
2018-04-07T00:41:11.379Z,101055.02
2018-04-07T00:43:40.334Z,101049.39
2018-04-07T00:46:08.430Z,101047.13
2018-04-07T00:48:36.525Z,101039.85
2018-04-07T00:51:05.682Z,101038.16
2018-04-07T00:53:33.755Z,101036.74
2018-04-07T00:56:01.842Z,101032.01
2018-04-07T01:08:14.953Z,101025.36
2018-04-07T01:10:43.374Z,101030.59
2018-04-07T01:13:11.462Z,101025.36
2018-04-07T01:15:39.572Z,101030.45
2018-04-07T01:18:07.667Z,101029.11
2018-04-07T01:20:36.419Z,101028.41
2018-04-07T01:23:04.546Z,101027.49
2018-04-07T01:25:34.171Z,101019.55
2018-04-07T01:28:02.282Z,101025.34
2018-04-07T01:30:30.370Z,101022.52
2018-04-07T01:32:59.234Z,101017.16
2018-04-07T01:35:27.790Z,101010.44
2018-04-07T01:37:56.288Z,101007.49
2018-04-07T01:40:24.351Z,101009.30
2018-04-07T01:42:53.018Z,101011.78
2018-04-07T01:45:21.119Z,101007.06
2018-04-07T01:47:55.068Z,101009.25
2018-04-07T01:50:23.198Z,100995.34
2018-04-07T01:52:51.296Z,101002.84
2018-04-07T01:55:19.390Z,101000.44
2018-04-07T01:57:47.527Z,101004.36
2018-04-07T02:00:16.918Z,100997.42
2018-04-07T02:02:45.830Z,100995.22
2018-04-07T02:05:13.922Z,100993.80
2018-04-07T02:07:43.505Z,100999.75
2018-04-07T02:10:11.599Z,100993.24
2018-04-07T02:12:39.727Z,100996.84
2018-04-07T02:15:08.919Z,100994.36
2018-04-07T02:17:38.658Z,100995.70
2018-04-07T02:20:06.742Z,100991.95
2018-04-07T02:22:34.863Z,100988.48
2018-04-07T02:25:03.467Z,100984.11
2018-04-07T02:27:31.568Z,100990.41
2018-04-07T02:42:59.685Z,100993.94
2018-04-07T02:45:28.587Z,100987.76
2018-04-07T02:47:57.213Z,100978.07
2018-04-07T02:50:25.356Z,100976.32
2018-04-07T02:52:53.407Z,100975.64
2018-04-07T02:55:21.513Z,100974.16
2018-04-07T02:57:50.085Z,100972.07
2018-04-07T03:00:18.826Z,100974.59
2018-04-07T03:02:47.055Z,100977.52
2018-04-07T03:05:15.231Z,100971.83
2018-04-07T03:07:43.654Z,100968.34
2018-04-07T03:10:11.783Z,100971.95
2018-04-07T03:12:39.878Z,100970.68
2018-04-07T03:15:08.246Z,100962.36
2018-04-07T03:17:36.649Z,100965.08
2018-04-07T03:20:04.767Z,100962.91
2018-04-07T03:22:32.870Z,100962.33
2018-04-07T03:25:00.980Z,100966.06
2018-04-07T03:27:29.112Z,100960.51
2018-04-07T03:29:57.205Z,100956.11
2018-04-07T03:32:25.363Z,100951.39
2018-04-07T03:34:53.491Z,100947.62
2018-04-07T03:37:21.585Z,100950.86
2018-04-07T03:39:49.990Z,100949.97
2018-04-07T03:42:19.001Z,100949.84
2018-04-07T03:44:47.097Z,100958.87
2018-04-07T03:47:15.397Z,100960.06
2018-04-07T03:49:43.483Z,100952.87
2018-04-07T03:52:11.691Z,100952.77
2018-04-07T03:54:40.252Z,100944.85
2018-04-07T03:57:08.452Z,100944.59
2018-04-07T03:59:36.573Z,100939.86
2018-04-07T04:02:04.718Z,100942.01
2018-04-07T04:04:32.834Z,100944.49
2018-04-07T04:07:01.238Z,100950.52
2018-04-07T04:09:29.853Z,100936.03
2018-04-07T04:11:57.991Z,100939.52
2018-04-07T04:14:26.837Z,100931.74
2018-04-07T04:16:54.941Z,100929.88
2018-04-07T04:19:23.429Z,100935.50
2018-04-07T04:21:51.508Z,100929.25
2018-04-07T04:34:00.863Z,100910.92
2018-04-07T04:36:29.281Z,100907.91
2018-04-07T04:38:58.152Z,100913.02
2018-04-07T04:41:26.245Z,100916.30
2018-04-07T04:43:54.366Z,100912.44
2018-04-07T04:46:22.479Z,100899.97
2018-04-07T04:48:51.195Z,100895.13
2018-04-07T04:51:19.742Z,100898.05
2018-04-07T04:53:47.872Z,100897.67
2018-04-07T04:56:16.558Z,100896.37
2018-04-07T04:58:44.663Z,100896.47
2018-04-07T05:01:13.135Z,100892.73
2018-04-07T05:03:41.229Z,100892.14
2018-04-07T05:06:11.156Z,100890.14
2018-04-07T05:08:39.278Z,100892.38
2018-04-07T05:11:07.374Z,100900.73
2018-04-07T05:13:35.467Z,100894.45
2018-04-07T05:16:03.598Z,100894.14
2018-04-07T05:18:32.502Z,100897.24
2018-04-07T05:21:00.602Z,100899.15
2018-04-07T05:23:33.974Z,100905.94
2018-04-07T05:26:02.071Z,100897.61
2018-04-07T05:28:30.202Z,100901.67
2018-04-07T05:30:59.074Z,100906.82
2018-04-07T05:33:27.282Z,100909.36
2018-04-07T05:35:55.436Z,100905.34
2018-04-07T05:38:24.338Z,100903.04
2018-04-07T05:40:52.548Z,100901.06
2018-04-07T05:43:20.626Z,100907.60
2018-04-07T05:45:48.854Z,100897.56
2018-04-07T05:48:17.907Z,100896.34
2018-04-07T05:50:46.089Z,100904.19
2018-04-07T05:53:14.939Z,100903.76
2018-04-07T05:55:43.353Z,100917.45
2018-04-07T05:58:11.591Z,100909.23
2018-04-07T06:10:24.700Z,100911.55
2018-04-07T06:12:52.838Z,100910.58
2018-04-07T06:15:20.918Z,100917.67
2018-04-07T06:17:49.014Z,100918.80
2018-04-07T06:20:17.228Z,100922.02
2018-04-07T06:22:45.313Z,100926.58
2018-04-07T06:25:13.501Z,100920.79
2018-04-07T06:27:42.882Z,100921.96
2018-04-07T06:30:11.985Z,100920.72
2018-04-07T06:32:40.683Z,100921.46
2018-04-07T06:35:08.808Z,100910.84
2018-04-07T06:37:37.743Z,100919.00
2018-04-07T06:40:06.368Z,100913.30
2018-04-07T06:42:34.480Z,100905.13
2018-04-07T06:45:02.578Z,100910.50
2018-04-07T06:47:31.029Z,100909.61
2018-04-07T06:49:59.110Z,100914.27
2018-04-07T06:52:28.094Z,100904.47
2018-04-07T06:54:56.965Z,100912.97
2018-04-07T06:57:26.003Z,100912.02
2018-04-07T06:59:54.850Z,100908.35
2018-04-07T07:02:23.024Z,100905.91
2018-04-07T07:04:51.135Z,100900.77
2018-04-07T07:07:19.239Z,100897.59
2018-04-07T07:09:47.397Z,100898.05
2018-04-07T07:12:15.494Z,100890.06
2018-04-07T07:14:44.507Z,100882.24
2018-04-07T07:17:12.620Z,100891.31
2018-04-07T07:19:41.048Z,100880.47
2018-04-07T07:22:09.142Z,100883.50
2018-04-07T07:34:22.272Z,100862.48
2018-04-07T07:36:56.531Z,100864.63
2018-04-07T07:39:24.609Z,100862.48
2018-04-07T07:41:53.496Z,100872.50
2018-04-07T07:44:21.591Z,100872.92
2018-04-07T07:46:50.934Z,100859.94
2018-04-07T07:49:19.183Z,100863.80
2018-04-07T07:51:47.751Z,100868.08
2018-04-07T07:54:16.637Z,100859.66
2018-04-07T07:56:44.737Z,100864.56
2018-04-07T07:59:13.710Z,100856.31
2018-04-07T08:01:41.844Z,100860.98
2018-04-07T08:04:09.930Z,100855.72
2018-04-07T08:06:38.815Z,100856.27
2018-04-07T08:09:06.947Z,100851.34
2018-04-07T08:11:35.331Z,100847.10
2018-04-07T08:14:04.388Z,100847.76
2018-04-07T08:16:32.551Z,100844.59
2018-04-07T08:19:00.652Z,100845.22
2018-04-07T08:21:28.764Z,100850.08
2018-04-07T08:23:56.923Z,100852.45
2018-04-07T08:26:25.163Z,100848.95
2018-04-07T08:28:53.290Z,100845.29
2018-04-07T08:31:21.865Z,100845.98
2018-04-07T08:33:49.979Z,100846.65
2018-04-07T08:36:18.073Z,100837.91
2018-04-07T08:38:46.160Z,100846.59
2018-04-07T08:41:14.322Z,100853.30
2018-04-07T08:43:42.420Z,100846.55
2018-04-07T08:46:11.159Z,100856.88
2018-04-07T08:48:40.059Z,100859.25
2018-04-07T08:51:08.146Z,100859.11
2018-04-07T08:53:36.261Z,100862.56
2018-04-07T08:56:04.403Z,100844.89
2018-04-07T08:58:32.518Z,100852.08
2018-04-07T09:01:00.606Z,100851.94
2018-04-07T09:03:29.013Z,100846.07
2018-04-07T09:05:57.163Z,100847.06
2018-04-07T09:08:25.262Z,100849.58
2018-04-07T09:10:53.379Z,100848.95
2018-04-07T09:13:21.552Z,100846.06
2018-04-07T09:15:49.645Z,100850.87
2018-04-07T09:18:20.341Z,100854.31
2018-04-07T09:20:48.495Z,100845.16
2018-04-07T09:23:16.574Z,100851.01
2018-04-07T09:25:44.746Z,100843.55
2018-04-07T09:28:12.909Z,100843.58
2018-04-07T09:30:41.007Z,100845.88
2018-04-07T09:33:09.457Z,100838.66
2018-04-07T09:35:38.604Z,100842.90
2018-04-07T09:38:06.827Z,100852.33
2018-04-07T09:40:35.876Z,100852.08
2018-04-07T09:43:04.575Z,100852.97
2018-04-07T09:45:32.695Z,100849.09
2018-04-07T09:48:00.801Z,100845.96
2018-04-07T09:50:28.904Z,100841.73
2018-04-07T09:52:58.225Z,100840.05
2018-04-07T09:55:26.367Z,100831.42
2018-04-07T09:57:54.442Z,100835.22
2018-04-07T10:00:22.539Z,100840.09
2018-04-07T10:02:56.886Z,100840.41
2018-04-07T10:05:25.878Z,100827.98
2018-04-07T10:07:53.974Z,100824.38
2018-04-07T10:10:23.221Z,100819.11
2018-04-07T10:12:51.318Z,100817.88
2018-04-07T10:15:19.424Z,100819.91
2018-04-07T10:17:47.616Z,100819.20
2018-04-07T10:20:15.727Z,100822.74
2018-04-07T10:22:44.641Z,100815.28
2018-04-07T10:25:12.973Z,100817.03
2018-04-07T10:27:41.071Z,100819.11
2018-04-07T10:30:09.159Z,100812.84
2018-04-07T10:32:37.380Z,100823.66
2018-04-07T10:35:05.467Z,100825.68
2018-04-07T10:37:33.573Z,100825.38
2018-04-07T10:40:01.693Z,100815.86
2018-04-07T10:42:29.781Z,100828.83
2018-04-07T10:44:57.888Z,100818.93
2018-04-07T11:00:26.128Z,100828.73
2018-04-07T11:02:54.226Z,100833.38
2018-04-07T11:05:23.025Z,100827.97
2018-04-07T11:07:51.160Z,100815.63
2018-04-07T11:10:19.254Z,100832.77
2018-04-07T11:12:47.527Z,100829.75
2018-04-07T11:15:16.503Z,100829.13
2018-04-07T11:17:44.951Z,100828.40
2018-04-07T11:20:13.017Z,100810.55
2018-04-07T11:22:41.193Z,100814.52
2018-04-07T11:25:09.238Z,100808.95
2018-04-07T11:27:37.552Z,100797.69
2018-04-07T11:30:05.674Z,100799.23
2018-04-07T11:32:33.791Z,100797.80
2018-04-07T11:35:01.868Z,100801.56
2018-04-07T11:37:29.985Z,100795.84
2018-04-07T11:39:58.080Z,100799.12
2018-04-07T11:42:27.110Z,100804.89
2018-04-07T11:44:55.235Z,100796.87
2018-04-07T11:47:23.381Z,100797.61
2018-04-07T11:49:51.474Z,100797.72
2018-04-07T11:52:19.589Z,100785.91
2018-04-07T11:54:47.734Z,100787.58
2018-04-07T11:57:15.833Z,100786.70
2018-04-07T11:59:43.950Z,100788.20
2018-04-07T12:02:12.350Z,100784.20
2018-04-07T12:04:41.296Z,100781.28
2018-04-07T12:07:09.419Z,100788.16
2018-04-07T12:09:37.509Z,100781.83
2018-04-07T12:12:05.846Z,100781.12
2018-04-07T12:14:33.985Z,100785.89
2018-04-07T12:17:02.873Z,100777.27
2018-04-07T12:19:30.964Z,100779.55
2018-04-07T12:22:00.106Z,100782.08
2018-04-07T12:24:28.213Z,100788.03
2018-04-07T12:26:57.146Z,100785.49
2018-04-07T12:29:25.275Z,100779.94
2018-04-07T12:31:53.354Z,100787.52
2018-04-07T12:34:21.441Z,100785.81
2018-04-07T12:36:49.556Z,100773.98
2018-04-07T12:39:17.685Z,100783.06
2018-04-07T12:41:45.809Z,100784.13
2018-04-07T12:44:13.947Z,100775.57
2018-04-07T12:46:42.049Z,100774.88
2018-04-07T12:49:10.135Z,100766.49
2018-04-07T12:51:38.264Z,100769.16
2018-04-07T12:54:06.452Z,100767.04
2018-04-07T12:56:34.534Z,100759.01
2018-04-07T12:59:03.473Z,100765.03
2018-04-07T13:01:36.519Z,100761.22
2018-04-07T13:04:05.783Z,100760.88
2018-04-07T13:06:34.142Z,100762.55
2018-04-07T13:09:02.227Z,100756.83
2018-04-07T13:11:30.343Z,100755.63
2018-04-07T13:13:59.085Z,100751.16
2018-04-07T13:16:27.180Z,100755.58
2018-04-07T13:18:56.038Z,100765.30
2018-04-07T13:34:25.059Z,100752.72
2018-04-07T13:36:53.200Z,100754.41
2018-04-07T13:39:21.373Z,100753.55
2018-04-07T13:41:49.521Z,100752.13
2018-04-07T13:44:17.645Z,100748.31
2018-04-07T13:46:45.740Z,100748.05
2018-04-07T13:49:13.867Z,100743.09
2018-04-07T13:51:41.961Z,100745.16
2018-04-07T13:54:10.060Z,100740.98
2018-04-07T13:56:38.953Z,100737.95
2018-04-07T13:59:07.053Z,100739.94
2018-04-07T14:01:35.236Z,100731.15
2018-04-07T14:04:03.705Z,100733.62
2018-04-07T14:06:31.812Z,100736.44
2018-04-07T14:08:59.935Z,100731.20
2018-04-07T14:11:28.131Z,100724.19
2018-04-07T14:13:56.206Z,100729.87
2018-04-07T14:16:24.340Z,100723.22
2018-04-07T14:18:52.431Z,100733.38
2018-04-07T14:21:20.519Z,100733.58
2018-04-07T14:23:48.629Z,100738.58
2018-04-07T14:26:16.779Z,100737.81
2018-04-07T14:28:44.871Z,100733.09
2018-04-07T14:31:13.004Z,100727.66
2018-04-07T14:33:41.104Z,100733.16
2018-04-07T14:36:09.204Z,100740.38
2018-04-07T14:38:38.199Z,100736.58
2018-04-07T14:41:07.124Z,100737.88
2018-04-07T14:43:35.264Z,100736.02
2018-04-07T14:46:03.601Z,100728.79
2018-04-07T14:48:31.707Z,100726.56
2018-04-07T14:50:59.832Z,100731.87
2018-04-07T14:53:28.688Z,100735.45
2018-04-07T14:55:56.954Z,100743.16
2018-04-07T14:58:25.053Z,100751.61
2018-04-07T15:00:53.915Z,100741.90
2018-04-07T15:03:22.022Z,100746.81
2018-04-07T15:05:50.091Z,100743.62
2018-04-07T15:08:18.214Z,100753.70
2018-04-07T15:10:46.622Z,100748.55
2018-04-07T15:13:15.603Z,100740.23
2018-04-07T15:28:43.765Z,100739.02
2018-04-07T15:31:12.494Z,100734.70
2018-04-07T15:33:40.605Z,100734.31
2018-04-07T15:36:08.737Z,100739.38
2018-04-07T15:38:37.554Z,100736.58
2018-04-07T15:41:05.673Z,100740.31
2018-04-07T15:43:34.452Z,100737.39
2018-04-07T15:46:03.278Z,100745.61
2018-04-07T15:48:31.390Z,100743.95
2018-04-07T15:51:04.445Z,100743.46
2018-04-07T15:53:32.554Z,100744.89
2018-04-07T15:56:00.655Z,100739.54
2018-04-07T15:58:28.767Z,100739.45
2018-04-07T16:00:56.899Z,100735.42
2018-04-07T16:03:25.006Z,100746.03
2018-04-07T16:05:53.405Z,100746.39
2018-04-07T16:08:21.522Z,100742.25
2018-04-07T16:10:49.613Z,100744.17
2018-04-07T16:13:17.748Z,100740.39
2018-04-07T16:15:46.215Z,100742.60
2018-04-07T16:18:14.310Z,100732.45
2018-04-07T16:20:42.409Z,100743.39
2018-04-07T16:23:10.546Z,100748.95
2018-04-07T16:25:39.324Z,100745.69
2018-04-07T16:28:07.548Z,100743.67
2018-04-07T16:30:35.662Z,100748.55
2018-04-07T16:33:04.440Z,100748.53
2018-04-07T16:35:32.550Z,100746.39
2018-04-07T16:38:00.644Z,100747.41
2018-04-07T16:40:30.005Z,100748.17
2018-04-07T16:42:58.101Z,100746.55
2018-04-07T16:45:26.286Z,100745.45
2018-04-07T16:47:54.318Z,100741.38
2018-04-07T16:50:22.445Z,100752.77
2018-04-07T16:52:50.566Z,100746.09
2018-04-07T16:55:18.778Z,100748.66
2018-04-07T16:57:46.900Z,100750.03
2018-04-07T17:00:15.016Z,100752.23
2018-04-07T17:02:43.336Z,100750.74
2018-04-07T17:05:11.440Z,100752.08
2018-04-07T17:07:39.884Z,100752.30
2018-04-07T17:10:07.984Z,100758.66
2018-04-07T17:12:36.110Z,100759.09
2018-04-07T17:15:04.199Z,100766.11
2018-04-07T17:17:32.287Z,100760.25
2018-04-07T17:20:00.390Z,100760.52
2018-04-07T17:22:29.479Z,100767.52
2018-04-07T17:24:58.342Z,100762.22
2018-04-07T17:27:26.704Z,100760.73
2018-04-07T17:29:54.808Z,100765.17
2018-04-07T17:32:23.264Z,100774.13
2018-04-07T17:34:51.368Z,100769.95
2018-04-07T17:37:19.476Z,100771.02
2018-04-07T17:39:47.580Z,100769.67
2018-04-07T17:42:15.673Z,100773.03
2018-04-07T17:44:43.802Z,100770.89
2018-04-07T17:47:11.902Z,100776.94
2018-04-07T17:49:43.734Z,100777.29
2018-04-07T17:52:08.126Z,100780.25
2018-04-07T17:54:36.666Z,100776.47
2018-04-07T17:57:04.799Z,100780.01
2018-04-07T17:59:32.922Z,100776.66
2018-04-07T18:02:01.040Z,100780.20
2018-04-07T18:04:29.110Z,100781.42
2018-04-07T18:06:57.225Z,100782.91
2018-04-07T18:09:25.351Z,100777.77
2018-04-07T18:11:53.584Z,100780.91
2018-04-07T18:14:21.844Z,100783.92
2018-04-07T18:16:49.939Z,100783.93
2018-04-07T18:19:18.071Z,100790.17
2018-04-07T18:21:46.122Z,100789.58
2018-04-07T18:24:14.228Z,100790.94
2018-04-07T18:26:42.347Z,100789.47
2018-04-07T18:29:10.518Z,100782.97
2018-04-07T18:31:38.630Z,100785.77
2018-04-07T18:34:06.779Z,100789.98
2018-04-07T18:36:34.887Z,100786.70
2018-04-07T18:39:03.151Z,100788.99
2018-04-07T18:41:31.294Z,100799.78
2018-04-07T18:43:59.374Z,100789.20
2018-04-07T18:46:27.482Z,100796.29
2018-04-07T18:48:55.614Z,100795.36
2018-04-07T18:51:24.071Z,100803.46
2018-04-07T18:53:52.218Z,100795.20
2018-04-07T18:56:21.267Z,100803.14
2018-04-07T18:58:49.610Z,100807.64
2018-04-07T19:01:17.703Z,100805.48
2018-04-07T19:03:45.825Z,100811.37
2018-04-07T19:06:13.978Z,100805.42
2018-04-07T19:08:42.067Z,100803.35
2018-04-07T19:11:10.183Z,100810.86
2018-04-07T19:13:38.532Z,100798.50
2018-04-07T19:16:06.633Z,100806.36
2018-04-07T19:18:34.774Z,100796.85
2018-04-07T19:21:03.946Z,100798.05
2018-04-07T19:23:37.022Z,100797.86
2018-04-07T19:26:05.125Z,100798.34
2018-04-07T19:28:33.925Z,100801.81
2018-04-07T19:31:02.062Z,100802.37
2018-04-07T19:33:30.152Z,100794.08
2018-04-07T19:35:58.264Z,100797.14
2018-04-07T19:38:26.387Z,100802.77
2018-04-07T19:40:54.799Z,100808.92
2018-04-07T19:56:22.901Z,100812.44
2018-04-07T19:58:51.347Z,100821.00
2018-04-07T20:01:19.659Z,100817.22
2018-04-07T20:03:47.710Z,100818.12
2018-04-07T20:06:16.175Z,100818.42
2018-04-07T20:08:44.303Z,100814.51
2018-04-07T20:11:12.409Z,100813.23
2018-04-07T20:13:40.583Z,100819.39
2018-04-07T20:16:08.694Z,100821.30
2018-04-07T20:18:36.848Z,100819.94
2018-04-07T20:21:04.990Z,100818.20
2018-04-07T20:36:33.164Z,100814.69
2018-04-07T20:39:01.223Z,100816.67
2018-04-07T20:41:29.421Z,100814.38
2018-04-07T20:43:57.613Z,100809.59
2018-04-07T20:46:25.702Z,100813.24
2018-04-07T20:48:53.807Z,100812.02
2018-04-07T20:51:21.920Z,100813.83
2018-04-07T20:53:50.369Z,100810.82
2018-04-07T20:56:19.009Z,100812.94
2018-04-07T20:58:47.146Z,100813.80
2018-04-07T21:01:15.226Z,100808.06
2018-04-07T21:03:44.469Z,100808.78
2018-04-07T21:06:13.101Z,100812.00
2018-04-07T21:08:41.897Z,100806.91
2018-04-07T21:11:10.026Z,100805.13
2018-04-07T21:13:38.165Z,100807.47
2018-04-07T21:16:07.061Z,100809.89
2018-04-07T21:18:35.975Z,100804.66
2018-04-07T21:21:04.235Z,100803.52
2018-04-07T21:23:33.149Z,100796.56
2018-04-07T21:26:01.294Z,100801.69
2018-04-07T21:28:30.209Z,100792.09
2018-04-07T21:30:58.296Z,100797.35
2018-04-07T21:33:27.342Z,100794.98
2018-04-07T21:35:55.933Z,100782.90
2018-04-07T21:38:24.045Z,100779.41
2018-04-07T21:40:52.139Z,100787.77
2018-04-07T21:43:20.361Z,100788.66
2018-04-07T21:45:48.445Z,100790.05
2018-04-07T21:48:16.571Z,100785.08
2018-04-07T21:50:44.699Z,100798.22
2018-04-07T21:53:12.800Z,100802.95
2018-04-07T21:55:40.904Z,100802.27
2018-04-07T21:58:09.031Z,100805.93
2018-04-07T22:00:37.144Z,100804.41
2018-04-07T22:03:05.250Z,100802.32
2018-04-07T22:05:33.370Z,100805.95
2018-04-07T22:21:01.535Z,100807.66
2018-04-07T22:23:30.276Z,100811.77
2018-04-07T22:25:58.731Z,100804.68
2018-04-07T22:28:27.767Z,100810.20
2018-04-07T22:30:55.877Z,100819.34
2018-04-07T22:33:24.016Z,100824.91
2018-04-07T22:35:52.982Z,100822.20
2018-04-07T22:38:21.989Z,100829.04
2018-04-07T22:40:50.435Z,100833.75
2018-04-07T22:43:19.487Z,100828.95
2018-04-07T22:45:47.606Z,100828.95
2018-04-07T22:48:15.751Z,100825.48
2018-04-07T22:50:44.785Z,100824.44
2018-04-07T22:53:12.889Z,100831.52
2018-04-07T22:55:41.026Z,100827.45
2018-04-07T22:58:09.131Z,100831.94
2018-04-07T23:00:37.557Z,100845.31
2018-04-07T23:03:06.569Z,100844.00
2018-04-07T23:05:34.666Z,100848.33
2018-04-07T23:08:03.409Z,100849.10
2018-04-07T23:10:32.329Z,100850.66
2018-04-07T23:13:00.758Z,100852.73
2018-04-07T23:15:28.853Z,100849.79
2018-04-07T23:17:57.474Z,100848.49
2018-04-07T23:20:25.548Z,100847.71
2018-04-07T23:22:54.163Z,100848.16
2018-04-07T23:25:22.786Z,100844.66
2018-04-07T23:27:51.859Z,100849.14
2018-04-07T23:30:20.320Z,100848.51
2018-04-07T23:32:48.510Z,100849.86
2018-04-07T23:35:16.968Z,100845.12
2018-04-07T23:37:45.084Z,100844.45
2018-04-07T23:40:13.176Z,100841.70
2018-04-07T23:42:41.279Z,100847.97
2018-04-07T23:45:10.333Z,100839.66
2018-04-07T23:47:38.426Z,100843.40
2018-04-07T23:50:06.558Z,100837.25
2018-04-07T23:52:35.320Z,100834.41
2018-04-07T23:55:04.467Z,100832.19
2018-04-07T23:57:32.566Z,100836.70
